Time;durP1;ratioP1;P1;durP2;ratioP2;P2;SDS_P1;SDS_P2;PMS_P1;PMS_P2;Temp;Humidity;BMP_temperature;BMP_pressure;BME280_temperature;BME280_humidity;BME280_pressure;Samples;Min_cycle;Max_cycle;Signal;HPM_P1;HPM_P2
2022/03/01 00:02:23;;;;;;;20.93;11.87;;;1.90;99.90;;;;;;5021554;28;20048;-87
2022/03/01 00:04:49;;;;;;;24.23;13.27;;;1.80;99.90;;;;;;5021772;28;20079;-87
2022/03/01 00:07:14;;;;;;;20.00;11.83;;;1.80;99.90;;;;;;5005678;28;20072;-87
2022/03/01 00:09:40;;;;;;;20.70;12.37;;;1.80;99.90;;;;;;5021957;28;20067;-87
2022/03/01 00:12:07;;;;;;;18.27;11.73;;;1.70;99.90;;;;;;5021263;28;20036;-87
2022/03/01 00:14:33;;;;;;;20.17;11.53;;;1.70;99.90;;;;;;5020584;28;20040;-87
2022/03/01 00:16:59;;;;;;;18.33;11.87;;;1.70;99.90;;;;;;5020780;28;20063;-87
2022/03/01 00:19:27;;;;;;;17.50;10.80;;;1.80;99.90;;;;;;5036040;28;20390;-87
2022/03/01 00:21:53;;;;;;;20.00;11.47;;;1.70;99.90;;;;;;5036167;28;20507;-87
2022/03/01 00:24:19;;;;;;;19.87;11.83;;;1.70;99.90;;;;;;5021421;28;20029;-87
2022/03/01 00:26:45;;;;;;;19.50;11.73;;;1.70;99.90;;;;;;5022006;28;20051;-87
2022/03/01 00:29:11;;;;;;;17.27;10.03;;;1.70;99.90;;;;;;5021591;28;20037;-86
2022/03/01 00:31:37;;;;;;;19.83;11.57;;;1.70;99.90;;;;;;5022277;28;20037;-86
2022/03/01 00:34:03;;;;;;;18.50;11.37;;;1.70;99.90;;;;;;5022025;28;20549;-87
2022/03/01 00:36:28;;;;;;;17.73;11.20;;;1.70;99.90;;;;;;5021722;28;20052;-86
2022/03/01 00:38:54;;;;;;;17.87;10.67;;;1.70;99.90;;;;;;5021159;28;20041;-86
2022/03/01 00:41:20;;;;;;;18.07;10.10;;;1.80;99.90;;;;;;5037768;28;20049;-87
2022/03/01 00:43:45;;;;;;;20.00;10.73;;;1.80;99.90;;;;;;5002130;28;20107;-86
2022/03/01 00:46:11;;;;;;;20.97;11.93;;;1.90;99.90;;;;;;4994350;28;20133;-86
2022/03/01 00:48:37;;;;;;;19.50;11.20;;;1.90;99.90;;;;;;5021317;28;20048;-86
2022/03/01 00:51:02;;;;;;;17.27;11.13;;;2.00;99.90;;;;;;4999287;28;20083;-84
2022/03/01 00:53:28;;;;;;;20.03;11.47;;;2.00;99.90;;;;;;5053819;28;20674;-85
2022/03/01 00:55:54;;;;;;;17.73;10.93;;;2.10;99.90;;;;;;5029307;28;20037;-86
2022/03/01 00:58:20;;;;;;;18.37;10.47;;;2.20;99.90;;;;;;5022646;28;20037;-86
2022/03/01 01:00:45;;;;;;;17.90;11.00;;;2.20;99.90;;;;;;5020877;28;20070;-86
2022/03/01 01:03:11;;;;;;;18.37;9.67;;;2.30;99.90;;;;;;5020283;28;20106;-86
2022/03/01 01:05:37;;;;;;;16.60;9.97;;;2.30;99.90;;;;;;4988029;28;20032;-86
2022/03/01 01:08:03;;;;;;;16.00;10.00;;;2.30;99.90;;;;;;5036702;28;20472;-86
2022/03/01 01:10:29;;;;;;;18.63;10.63;;;2.30;99.90;;;;;;5020463;28;20435;-87
2022/03/01 01:12:55;;;;;;;18.53;10.43;;;2.40;99.90;;;;;;5020251;28;20099;-87
2022/03/01 01:15:21;;;;;;;18.43;10.60;;;2.40;99.90;;;;;;5038083;28;20412;-86
2022/03/01 01:17:47;;;;;;;19.13;11.30;;;2.40;99.90;;;;;;5020543;28;20068;-86
2022/03/01 01:20:14;;;;;;;18.20;10.77;;;2.40;99.90;;;;;;5004213;28;20729;-87
2022/03/01 01:22:40;;;;;;;15.20;10.20;;;2.40;99.90;;;;;;5020443;28;20724;-87
2022/03/01 01:25:18;;;;;;;19.10;11.63;;;2.30;99.90;;;;;;5036418;28;20310;-87
2022/03/01 01:27:46;;;;;;;18.67;10.83;;;2.40;99.90;;;;;;5016820;28;20036;-87
2022/03/01 01:30:15;;;;;;;16.90;10.37;;;2.30;99.90;;;;;;5020146;28;20045;-86
2022/03/01 01:32:42;;;;;;;20.63;12.00;;;2.30;99.90;;;;;;5017164;28;20811;-86
2022/03/01 01:35:10;;;;;;;17.17;11.13;;;2.30;99.90;;;;;;5035812;28;20040;-87
2022/03/01 01:37:36;;;;;;;19.63;11.53;;;2.20;99.90;;;;;;5004969;28;20283;-87
2022/03/01 01:40:03;;;;;;;20.23;11.23;;;2.10;99.90;;;;;;5024206;28;20044;-87
2022/03/01 01:42:29;;;;;;;17.37;11.10;;;2.10;99.90;;;;;;5008523;28;20651;-87
2022/03/01 01:44:55;;;;;;;20.37;11.50;;;2.00;99.90;;;;;;5003541;28;20284;-87
2022/03/01 01:47:21;;;;;;;18.03;11.23;;;2.00;99.90;;;;;;5016422;28;20033;-87
2022/03/01 01:49:46;;;;;;;19.37;11.37;;;2.00;99.90;;;;;;5022912;28;20037;-87
2022/03/01 01:52:12;;;;;;;20.67;11.57;;;2.00;99.90;;;;;;5007029;28;20128;-87
2022/03/01 01:54:38;;;;;;;18.37;11.53;;;1.90;99.90;;;;;;5023676;28;20036;-87
2022/03/01 01:57:19;;;;;;;18.53;11.07;;;1.80;99.90;;;;;;5023857;28;20344;-87
2022/03/01 01:59:46;;;;;;;19.93;11.17;;;1.70;99.90;;;;;;5020724;28;20045;-86
2022/03/01 02:02:18;;;;;;;18.20;10.93;;;1.70;99.90;;;;;;5022483;28;20306;-86
2022/03/01 02:04:44;;;;;;;21.92;11.07;;;1.60;99.90;;;;;;5020796;28;20643;-87
2022/03/01 02:07:11;;;;;;;21.30;11.80;;;1.60;99.90;;;;;;4987499;28;20033;-87
2022/03/01 02:09:38;;;;;;;22.37;12.27;;;1.60;99.90;;;;;;5035892;28;20284;-86
2022/03/01 02:12:04;;;;;;;22.50;11.93;;;1.50;99.90;;;;;;5035980;28;20076;-86
2022/03/01 02:14:30;;;;;;;19.77;11.70;;;1.60;99.90;;;;;;5019531;28;20391;-86
2022/03/01 02:16:58;;;;;;;19.70;11.73;;;1.60;99.90;;;;;;5002737;28;20295;-86
2022/03/01 02:19:24;;;;;;;20.23;12.30;;;1.70;99.90;;;;;;5019823;28;20051;-86
2022/03/01 02:21:54;;;;;;;21.97;12.47;;;1.80;99.90;;;;;;5003889;28;20795;-87
2022/03/01 02:24:21;;;;;;;22.90;13.47;;;1.80;99.90;;;;;;5020265;28;20033;-87
2022/03/01 02:26:46;;;;;;;23.33;12.67;;;1.80;99.90;;;;;;5010934;28;20294;-86
2022/03/01 02:29:12;;;;;;;21.67;12.57;;;1.80;99.90;;;;;;5019382;28;20279;-86
2022/03/01 02:31:38;;;;;;;22.77;13.13;;;1.80;99.90;;;;;;5003826;28;20116;-87
2022/03/01 02:34:04;;;;;;;19.10;11.40;;;1.90;99.90;;;;;;5020762;28;20076;-87
2022/03/01 02:36:31;;;;;;;19.53;11.67;;;1.80;99.90;;;;;;5036193;28;20369;-81
2022/03/01 02:38:57;;;;;;;20.23;12.37;;;1.90;99.90;;;;;;5018157;28;20298;-81
2022/03/01 02:41:25;;;;;;;23.00;12.87;;;1.90;99.90;;;;;;5032733;28;20798;-81
2022/03/01 02:43:50;;;;;;;22.60;12.30;;;2.00;99.90;;;;;;5034983;28;20276;-80
2022/03/01 02:46:16;;;;;;;22.50;12.07;;;1.90;99.90;;;;;;5017561;28;20732;-81
2022/03/01 02:48:42;;;;;;;22.07;13.00;;;1.90;99.90;;;;;;5034516;28;20106;-80
2022/03/01 02:51:08;;;;;;;23.47;13.47;;;2.00;99.90;;;;;;5017937;28;20088;-80
2022/03/01 02:53:36;;;;;;;23.57;12.43;;;2.00;99.90;;;;;;5018309;28;20049;-81
2022/03/01 02:56:03;;;;;;;25.63;12.87;;;2.00;99.90;;;;;;5017858;28;20290;-80
2022/03/01 02:58:28;;;;;;;23.67;12.87;;;1.90;99.90;;;;;;5034381;28;20797;-81
2022/03/01 03:00:54;;;;;;;22.27;13.13;;;1.90;99.90;;;;;;5001233;28;20284;-81
2022/03/01 03:03:20;;;;;;;20.57;12.67;;;1.90;99.90;;;;;;5018079;28;20041;-81
2022/03/01 03:05:46;;;;;;;23.03;13.23;;;1.90;99.90;;;;;;5021343;28;20123;-81
2022/03/01 03:08:12;;;;;;;21.60;13.37;;;1.90;99.90;;;;;;5000396;28;20037;-80
2022/03/01 03:10:37;;;;;;;21.80;13.17;;;1.80;99.90;;;;;;5049940;28;20076;-80
2022/03/01 03:13:04;;;;;;;22.60;13.20;;;1.90;99.90;;;;;;5049980;28;20045;-80
2022/03/01 03:15:31;;;;;;;22.10;12.40;;;1.80;99.90;;;;;;5015181;28;20045;-80
2022/03/01 03:17:57;;;;;;;22.20;12.90;;;1.80;99.90;;;;;;5049592;28;20333;-80
2022/03/01 03:20:23;;;;;;;21.20;12.67;;;1.80;99.90;;;;;;5048330;28;20287;-80
2022/03/01 03:22:50;;;;;;;22.33;13.40;;;1.70;99.90;;;;;;5034051;28;20416;-80
2022/03/01 03:25:16;;;;;;;20.27;12.40;;;1.80;99.90;;;;;;5000134;28;20287;-81
2022/03/01 03:27:42;;;;;;;19.40;12.53;;;1.80;99.90;;;;;;5032422;28;20291;-80
2022/03/01 03:30:09;;;;;;;20.60;11.70;;;1.80;99.90;;;;;;4999687;28;20286;-80
2022/03/01 03:32:35;;;;;;;21.23;13.23;;;1.70;99.90;;;;;;4999883;28;20045;-81
2022/03/01 03:35:03;;;;;;;21.50;12.20;;;1.70;99.90;;;;;;5030609;28;20311;-81
2022/03/01 03:37:28;;;;;;;20.67;13.23;;;1.70;99.90;;;;;;5031231;28;20426;-80
2022/03/01 03:39:54;;;;;;;24.53;14.10;;;1.60;99.90;;;;;;4998669;28;20800;-81
2022/03/01 03:42:20;;;;;;;22.07;13.07;;;1.50;99.90;;;;;;5046396;28;20083;-80
2022/03/01 03:44:46;;;;;;;20.70;12.67;;;1.40;99.90;;;;;;5032010;28;20120;-81
2022/03/01 03:47:12;;;;;;;22.40;13.70;;;1.40;99.90;;;;;;5050653;28;20041;-81
2022/03/01 03:49:38;;;;;;;23.97;13.87;;;1.30;99.90;;;;;;5032577;28;20287;-80
2022/03/01 03:52:06;;;;;;;23.30;13.20;;;1.30;99.90;;;;;;4999972;28;20284;-80
2022/03/01 03:54:32;;;;;;;23.93;13.43;;;1.20;99.90;;;;;;5015723;28;20041;-80
2022/03/01 03:56:58;;;;;;;20.43;12.80;;;1.20;99.90;;;;;;5031983;28;20314;-80
2022/03/01 03:59:24;;;;;;;19.80;12.70;;;1.20;99.90;;;;;;5031832;28;20287;-80
2022/03/01 04:01:50;;;;;;;24.17;13.53;;;1.10;99.90;;;;;;5015780;28;20493;-80
2022/03/01 04:04:16;;;;;;;22.53;14.00;;;1.10;99.90;;;;;;5016326;28;20315;-80
2022/03/01 04:06:43;;;;;;;22.20;13.17;;;1.10;99.90;;;;;;5000597;28;20303;-80
2022/03/01 04:09:08;;;;;;;20.67;12.53;;;1.10;99.90;;;;;;5050653;28;20047;-80
2022/03/01 04:11:34;;;;;;;22.03;12.63;;;1.00;99.90;;;;;;5033132;28;20279;-80
2022/03/01 04:14:02;;;;;;;22.63;13.33;;;1.00;99.90;;;;;;5014451;28;20106;-80
2022/03/01 04:16:28;;;;;;;21.90;13.20;;;1.00;99.90;;;;;;4999722;28;20326;-81
2022/03/01 04:18:55;;;;;;;21.97;13.20;;;1.00;99.90;;;;;;5016471;28;20291;-81
2022/03/01 04:21:20;;;;;;;23.80;13.63;;;1.00;99.90;;;;;;5013533;28;20283;-81
2022/03/01 04:23:47;;;;;;;25.00;14.57;;;1.10;99.90;;;;;;5016328;28;20279;-81
2022/03/01 04:26:13;;;;;;;23.73;13.83;;;1.20;99.90;;;;;;5016682;28;20480;-81
2022/03/01 04:28:39;;;;;;;24.93;14.67;;;1.20;99.90;;;;;;5018329;28;20294;-81
2022/03/01 04:31:05;;;;;;;22.50;13.10;;;1.20;99.90;;;;;;5017045;28;20275;-80
2022/03/01 04:33:31;;;;;;;22.87;13.87;;;1.20;99.90;;;;;;5033301;28;20120;-80
2022/03/01 04:35:59;;;;;;;24.50;14.20;;;1.30;99.90;;;;;;5016306;28;20033;-80
2022/03/01 04:38:25;;;;;;;23.37;13.57;;;1.20;99.90;;;;;;5003593;28;20477;-80
2022/03/01 04:40:52;;;;;;;24.37;12.90;;;1.20;99.90;;;;;;5032448;28;20291;-80
2022/03/01 04:43:19;;;;;;;20.90;12.63;;;1.10;99.90;;;;;;4999856;28;21003;-80
2022/03/01 04:45:45;;;;;;;22.57;13.70;;;1.10;99.90;;;;;;4999858;28;20353;-80
2022/03/01 04:48:11;;;;;;;26.27;13.53;;;1.00;99.90;;;;;;5015717;28;20291;-80
2022/03/01 04:50:38;;;;;;;25.43;13.93;;;1.00;99.90;;;;;;5015922;28;20286;-81
2022/03/01 04:53:03;;;;;;;21.67;12.40;;;0.90;99.90;;;;;;5032692;28;20284;-80
2022/03/01 04:55:29;;;;;;;23.13;13.47;;;0.90;99.90;;;;;;5026281;28;20846;-81
2022/03/01 04:57:55;;;;;;;22.93;13.93;;;0.80;99.90;;;;;;5050477;28;20107;-80
2022/03/01 05:00:21;;;;;;;25.47;14.40;;;0.90;99.90;;;;;;5033121;28;20044;-80
2022/03/01 05:02:47;;;;;;;22.80;14.27;;;1.00;99.90;;;;;;5032675;28;20041;-80
2022/03/01 05:05:14;;;;;;;23.63;13.50;;;1.10;99.90;;;;;;5015955;28;20283;-80
2022/03/01 05:07:42;;;;;;;21.50;13.83;;;1.20;99.90;;;;;;5015181;28;20287;-81
2022/03/01 05:10:09;;;;;;;26.57;15.43;;;1.20;99.90;;;;;;5017308;28;20318;-80
2022/03/01 05:12:50;;;;;;;24.43;14.07;;;1.30;99.90;;;;;;5034647;28;20295;-81
2022/03/01 05:15:17;;;;;;;25.07;14.37;;;1.30;99.90;;;;;;5017761;28;20288;-81
2022/03/01 05:17:43;;;;;;;19.83;12.40;;;1.30;99.90;;;;;;5002744;28;20338;-81
2022/03/01 05:20:11;;;;;;;24.37;13.33;;;1.30;99.90;;;;;;5018494;28;20399;-80
2022/03/01 05:22:38;;;;;;;23.07;13.67;;;1.30;99.90;;;;;;5017884;28;20654;-80
2022/03/01 05:25:06;;;;;;;25.13;13.83;;;1.20;99.90;;;;;;5035053;28;20334;-81
2022/03/01 05:27:31;;;;;;;25.83;14.37;;;1.20;99.90;;;;;;5019222;28;20306;-81
2022/03/01 05:29:57;;;;;;;24.93;14.20;;;1.20;99.90;;;;;;5002955;28;20793;-81
2022/03/01 05:32:23;;;;;;;26.97;14.93;;;1.30;99.90;;;;;;5003396;28;20400;-81
2022/03/01 05:34:49;;;;;;;25.30;13.83;;;1.30;99.90;;;;;;5019241;28;20045;-81
2022/03/01 05:37:15;;;;;;;22.50;13.60;;;1.40;99.90;;;;;;5002788;28;20033;-81
2022/03/01 05:39:41;;;;;;;24.77;14.10;;;1.40;99.90;;;;;;5002826;28;20298;-81
2022/03/01 05:42:08;;;;;;;26.87;14.30;;;1.50;99.90;;;;;;5018770;28;20476;-81
2022/03/01 05:44:34;;;;;;;22.97;13.67;;;1.50;99.90;;;;;;5019195;28;20045;-80
2022/03/01 05:47:00;;;;;;;25.17;15.43;;;1.50;99.90;;;;;;5002588;28;20579;-81
2022/03/01 05:49:25;;;;;;;24.50;12.90;;;1.50;99.90;;;;;;5019370;28;20290;-80
2022/03/01 05:51:51;;;;;;;21.43;13.23;;;1.50;99.90;;;;;;5019270;28;20044;-81
2022/03/01 05:54:17;;;;;;;24.80;13.13;;;1.60;99.90;;;;;;5035948;28;20082;-80
2022/03/01 05:56:42;;;;;;;24.50;14.40;;;1.50;99.90;;;;;;5035213;28;20045;-80
2022/03/01 05:59:08;;;;;;;25.13;14.53;;;1.50;99.90;;;;;;5002903;28;20036;-80
2022/03/01 06:01:34;;;;;;;24.43;13.87;;;1.60;99.90;;;;;;5018939;28;20060;-80
2022/03/01 06:04:00;;;;;;;22.80;13.17;;;1.50;99.90;;;;;;5036097;28;20029;-81
2022/03/01 06:06:25;;;;;;;26.07;14.30;;;1.50;99.90;;;;;;5037404;28;20036;-79
2022/03/01 06:08:51;;;;;;;26.80;15.03;;;1.50;99.90;;;;;;5019335;28;20087;-80
2022/03/01 06:11:17;;;;;;;29.47;15.27;;;1.50;99.90;;;;;;5001710;28;20095;-80
2022/03/01 06:13:43;;;;;;;29.20;16.07;;;1.50;99.90;;;;;;5018766;28;20032;-81
2022/03/01 06:16:09;;;;;;;24.83;14.60;;;1.60;99.90;;;;;;5033865;28;20124;-80
2022/03/01 06:18:35;;;;;;;25.43;14.03;;;1.60;99.90;;;;;;5034376;28;20349;-80
2022/03/01 06:21:02;;;;;;;27.33;15.90;;;1.60;99.90;;;;;;5034940;28;20824;-80
2022/03/01 06:23:28;;;;;;;30.67;17.30;;;1.60;99.90;;;;;;5035079;28;20671;-80
2022/03/01 06:25:54;;;;;;;27.10;16.33;;;1.60;99.90;;;;;;5052517;28;20284;-80
2022/03/01 06:28:19;;;;;;;28.47;16.00;;;1.70;99.90;;;;;;5035448;28;20295;-80
2022/03/01 06:30:45;;;;;;;24.13;15.33;;;1.60;99.90;;;;;;5018223;28;20048;-80
2022/03/01 06:33:11;;;;;;;29.90;15.10;;;1.60;99.90;;;;;;5032541;28;20131;-80
2022/03/01 06:35:37;;;;;;;24.23;14.67;;;1.60;99.90;;;;;;5017710;28;20128;-80
2022/03/01 06:38:03;;;;;;;26.60;15.43;;;1.60;99.90;;;;;;5034807;28;20049;-81
2022/03/01 06:40:29;;;;;;;29.77;15.73;;;1.70;99.90;;;;;;5034976;28;20381;-81
2022/03/01 06:42:56;;;;;;;22.60;14.47;;;1.70;99.90;;;;;;5032352;28;20314;-80
2022/03/01 06:45:22;;;;;;;25.10;15.37;;;1.70;99.90;;;;;;5032010;28;20488;-80
2022/03/01 06:47:48;;;;;;;27.73;15.20;;;1.70;99.90;;;;;;5034881;28;20616;-80
2022/03/01 06:50:15;;;;;;;25.70;15.13;;;1.70;99.90;;;;;;5017974;28;20643;-79
2022/03/01 06:52:41;;;;;;;26.37;15.03;;;1.80;99.90;;;;;;5051077;28;20834;-79
2022/03/01 06:55:09;;;;;;;23.43;14.70;;;1.70;99.90;;;;;;5015523;28;20374;-79
2022/03/01 06:57:40;;;;;;;27.00;15.57;;;1.80;99.90;;;;;;5033121;28;20060;-80
2022/03/01 07:00:07;;;;;;;23.87;15.03;;;1.90;99.90;;;;;;5032347;28;20284;-79
2022/03/01 07:02:38;;;;;;;26.60;15.53;;;1.90;99.90;;;;;;5015397;28;20855;-79
2022/03/01 07:05:09;;;;;;;27.10;15.15;;;2.00;99.90;;;;;;4997684;28;20271;-79
2022/03/01 07:07:35;;;;;;;27.90;15.30;;;2.00;99.90;;;;;;4998715;28;20132;-79
2022/03/01 07:10:01;;;;;;;27.33;15.00;;;2.00;99.90;;;;;;5016640;28;20667;-79
2022/03/01 07:12:27;;;;;;;27.30;15.23;;;2.00;99.90;;;;;;5015193;28;20296;-79
2022/03/01 07:14:53;;;;;;;27.50;16.27;;;2.10;99.90;;;;;;5028879;28;20316;-79
2022/03/01 07:17:20;;;;;;;27.13;15.90;;;2.10;99.90;;;;;;5006247;28;20327;-79
2022/03/01 07:19:45;;;;;;;28.20;16.43;;;2.20;99.90;;;;;;4988957;28;20079;-79
2022/03/01 07:22:11;;;;;;;28.77;16.87;;;2.20;99.90;;;;;;5012455;28;20387;-79
2022/03/01 07:24:37;;;;;;;27.47;16.10;;;2.30;99.90;;;;;;4996037;28;20081;-79
2022/03/01 07:27:03;;;;;;;27.33;16.30;;;2.30;99.90;;;;;;4990340;28;20042;-80
2022/03/01 07:29:30;;;;;;;25.80;16.00;;;2.40;99.90;;;;;;5026414;28;20553;-79
2022/03/01 07:31:58;;;;;;;23.93;14.67;;;2.40;99.90;;;;;;4991080;28;20038;-79
2022/03/01 07:34:24;;;;;;;27.33;15.93;;;2.50;99.90;;;;;;5025047;28;20288;-79
2022/03/01 07:36:50;;;;;;;28.07;16.33;;;2.60;99.90;;;;;;4993216;28;20320;-79
2022/03/01 07:39:16;;;;;;;27.03;16.37;;;2.60;99.90;;;;;;5012538;28;20073;-79
2022/03/01 07:41:41;;;;;;;30.03;15.87;;;2.60;99.90;;;;;;4982576;28;20084;-79
2022/03/01 07:44:07;;;;;;;31.73;16.50;;;2.70;99.90;;;;;;5010375;28;20041;-79
2022/03/01 07:46:33;;;;;;;26.60;15.27;;;2.70;99.90;;;;;;4997105;28;20388;-79
2022/03/01 07:48:59;;;;;;;26.73;14.57;;;2.80;99.90;;;;;;5028689;28;20080;-79
2022/03/01 07:51:24;;;;;;;22.63;14.40;;;2.80;99.90;;;;;;5028534;28;20041;-79
2022/03/01 07:53:51;;;;;;;24.00;14.20;;;2.90;99.90;;;;;;5012729;28;20033;-80
2022/03/01 07:56:20;;;;;;;28.63;15.10;;;3.00;99.90;;;;;;5013274;28;20351;-79
2022/03/01 07:58:46;;;;;;;25.60;14.33;;;3.10;99.90;;;;;;4995038;28;20045;-79
2022/03/01 08:01:12;;;;;;;24.63;14.03;;;3.10;99.90;;;;;;4985839;28;20414;-79
2022/03/01 08:03:38;;;;;;;27.63;16.30;;;3.20;99.90;;;;;;4989158;28;20126;-79
2022/03/01 08:06:05;;;;;;;32.07;17.80;;;3.30;99.90;;;;;;4978813;28;20382;-79
2022/03/01 08:08:31;;;;;;;31.60;18.40;;;3.30;99.90;;;;;;4989365;28;20076;-78
2022/03/01 08:10:57;;;;;;;28.43;15.73;;;3.40;99.90;;;;;;5012416;28;20779;-79
2022/03/01 08:13:24;;;;;;;26.70;15.40;;;3.40;99.90;;;;;;4990899;28;20075;-79
2022/03/01 08:15:50;;;;;;;24.07;14.47;;;3.50;99.90;;;;;;4989312;28;20080;-79
2022/03/01 08:18:16;;;;;;;24.27;14.60;;;3.50;99.90;;;;;;5029663;28;20163;-79
2022/03/01 08:20:42;;;;;;;26.50;14.20;;;3.50;99.90;;;;;;5027782;28;20127;-79
2022/03/01 08:23:08;;;;;;;24.50;14.90;;;3.60;99.90;;;;;;5015961;28;20033;-80
2022/03/01 08:25:34;;;;;;;27.00;14.67;;;3.60;99.90;;;;;;5015812;28;20094;-79
2022/03/01 08:28:01;;;;;;;24.57;14.07;;;3.70;99.90;;;;;;5015278;28;20496;-79
2022/03/01 08:30:28;;;;;;;23.20;14.23;;;3.60;99.90;;;;;;5015332;28;20041;-79
2022/03/01 08:32:55;;;;;;;27.57;14.30;;;3.70;99.90;;;;;;5014919;28;20103;-79
2022/03/01 08:35:20;;;;;;;28.37;14.63;;;3.80;99.90;;;;;;5031527;28;20049;-79
2022/03/01 08:37:46;;;;;;;22.43;13.30;;;3.90;99.90;;;;;;4999307;28;20047;-79
2022/03/01 08:40:13;;;;;;;24.40;13.77;;;3.80;99.90;;;;;;4999671;28;20114;-79
2022/03/01 08:42:39;;;;;;;22.33;14.07;;;3.80;99.90;;;;;;5016348;28;20041;-79
2022/03/01 08:45:06;;;;;;;24.47;14.60;;;3.90;99.90;;;;;;5017635;28;20088;-79
2022/03/01 08:47:32;;;;;;;25.07;14.67;;;4.00;99.90;;;;;;5019177;28;20036;-79
2022/03/01 08:49:59;;;;;;;27.87;14.90;;;4.10;99.90;;;;;;5018860;28;20029;-79
2022/03/01 08:52:26;;;;;;;24.33;14.63;;;4.10;99.90;;;;;;5019502;28;20048;-80
2022/03/01 08:54:52;;;;;;;25.47;14.50;;;4.20;99.90;;;;;;5002962;28;20052;-79
2022/03/01 08:57:18;;;;;;;25.60;14.47;;;4.30;99.90;;;;;;5003195;28;20048;-79
2022/03/01 08:59:44;;;;;;;24.33;14.97;;;4.40;99.90;;;;;;5019673;28;20344;-79
2022/03/01 09:02:10;;;;;;;24.87;14.03;;;4.50;99.90;;;;;;5002669;28;20629;-79
2022/03/01 09:04:35;;;;;;;25.07;14.53;;;4.70;99.90;;;;;;5003072;28;20036;-79
2022/03/01 09:07:03;;;;;;;25.20;14.80;;;4.80;99.90;;;;;;4990260;28;20036;-80
2022/03/01 09:09:31;;;;;;;23.10;14.30;;;4.90;99.90;;;;;;4987312;28;20076;-79
2022/03/01 09:11:56;;;;;;;23.30;14.17;;;5.00;99.90;;;;;;5035295;28;20519;-79
2022/03/01 09:14:22;;;;;;;27.37;14.70;;;5.10;99.90;;;;;;5002803;28;20040;-79
2022/03/01 09:16:48;;;;;;;24.30;13.73;;;5.10;99.90;;;;;;5018209;28;20049;-79
2022/03/01 09:19:14;;;;;;;26.27;14.37;;;5.20;99.90;;;;;;5002010;28;20052;-79
2022/03/01 09:21:40;;;;;;;19.07;12.57;;;5.30;99.90;;;;;;5001549;28;20615;-79
2022/03/01 09:24:06;;;;;;;21.73;12.60;;;5.30;99.90;;;;;;5002639;28;20033;-79
2022/03/01 09:26:32;;;;;;;26.37;14.80;;;5.40;99.90;;;;;;5035026;28;20610;-79
2022/03/01 09:28:57;;;;;;;25.10;14.47;;;5.50;99.90;;;;;;5018431;28;20069;-79
2022/03/01 09:31:23;;;;;;;26.47;13.87;;;5.60;99.90;;;;;;5002298;28;20068;-79
2022/03/01 09:33:49;;;;;;;23.07;14.10;;;5.60;99.90;;;;;;5018226;28;20037;-79
2022/03/01 09:36:15;;;;;;;24.73;14.03;;;5.70;99.90;;;;;;5018610;28;20037;-79
2022/03/01 09:38:42;;;;;;;22.87;13.20;;;5.80;99.90;;;;;;5001589;28;20041;-79
2022/03/01 09:41:09;;;;;;;22.47;13.77;;;5.90;99.90;;;;;;5018328;28;20041;-79
2022/03/01 09:43:37;;;;;;;21.87;13.60;;;6.00;99.90;;;;;;5034799;28;20049;-79
2022/03/01 09:46:03;;;;;;;21.80;12.80;;;6.10;99.90;;;;;;5034020;28;20033;-79
2022/03/01 09:48:29;;;;;;;22.20;13.20;;;6.10;99.90;;;;;;5001540;28;20053;-79
2022/03/01 09:50:58;;;;;;;22.03;14.03;;;6.20;99.90;;;;;;5017429;28;20040;-79
2022/03/01 09:53:24;;;;;;;21.33;12.77;;;6.20;99.90;;;;;;5034316;28;20041;-79
2022/03/01 09:55:52;;;;;;;21.23;13.03;;;6.30;99.90;;;;;;5017491;28;20135;-79
2022/03/01 09:58:17;;;;;;;21.63;13.43;;;6.30;99.90;;;;;;5001440;28;20037;-79
2022/03/01 10:00:45;;;;;;;20.37;12.53;;;6.40;99.90;;;;;;5017980;28;20075;-79
2022/03/01 10:03:15;;;;;;;21.13;12.37;;;6.40;99.90;;;;;;5000944;28;20047;-79
2022/03/01 10:05:42;;;;;;;22.73;13.77;;;6.60;99.90;;;;;;5034191;28;20059;-79
2022/03/01 10:08:13;;;;;;;21.43;13.13;;;6.60;99.90;;;;;;5018692;28;20033;-79
2022/03/01 10:10:47;;;;;;;21.80;12.77;;;6.60;99.90;;;;;;5002135;28;20041;-79
2022/03/01 10:13:15;;;;;;;19.93;13.30;;;6.70;99.90;;;;;;5017000;28;20045;-79
2022/03/01 10:15:41;;;;;;;23.83;14.53;;;6.60;99.90;;;;;;5017644;28;20127;-79
2022/03/01 10:18:15;;;;;;;20.67;13.43;;;6.60;99.90;;;;;;5033515;28;20179;-79
2022/03/01 10:20:44;;;;;;;23.53;14.13;;;6.60;99.90;;;;;;5017459;28;20123;-79
2022/03/01 10:23:11;;;;;;;22.23;12.67;;;6.60;99.90;;;;;;5016715;28;20068;-79
2022/03/01 10:25:39;;;;;;;20.70;12.73;;;6.60;99.90;;;;;;5034164;28;20448;-79
2022/03/01 10:28:06;;;;;;;21.23;13.00;;;6.70;99.90;;;;;;5032716;28;20053;-80
2022/03/01 10:30:34;;;;;;;21.53;13.00;;;6.90;99.90;;;;;;5016340;28;20037;-79
2022/03/01 10:33:12;;;;;;;24.53;13.13;;;6.90;99.90;;;;;;5015721;28;20112;-79
2022/03/01 10:35:41;;;;;;;23.03;12.97;;;7.00;99.90;;;;;;5019184;28;20598;-79
2022/03/01 10:38:09;;;;;;;22.70;13.27;;;7.10;99.90;;;;;;5028798;28;20092;-79
2022/03/01 10:40:37;;;;;;;21.53;12.33;;;7.30;99.90;;;;;;5013256;28;20047;-80
2022/03/01 10:43:02;;;;;;;20.57;13.20;;;7.40;99.90;;;;;;5017361;28;20048;-79
2022/03/01 10:45:43;;;;;;;19.13;12.83;;;7.60;99.90;;;;;;5017044;28;20040;-80
2022/03/01 10:48:11;;;;;;;20.47;12.30;;;7.80;99.90;;;;;;5012213;28;20040;-80
2022/03/01 10:50:39;;;;;;;23.83;13.60;;;8.00;99.90;;;;;;5017373;28;20396;-80
2022/03/01 10:53:06;;;;;;;20.23;13.27;;;8.10;99.90;;;;;;4996379;28;20373;-80
2022/03/01 10:55:35;;;;;;;20.77;12.57;;;8.20;99.90;;;;;;5000612;28;20087;-79
2022/03/01 10:58:06;;;;;;;22.77;12.97;;;8.40;99.90;;;;;;5016340;28;20049;-80
2022/03/01 11:00:37;;;;;;;18.60;12.05;;;8.50;99.80;;;;;;5026383;28;20049;-80
2022/03/01 11:03:07;;;;;;;20.80;12.30;;;8.50;96.70;;;;;;5016412;28;20045;-79
2022/03/01 11:05:34;;;;;;;19.73;12.27;;;8.60;98.20;;;;;;5017411;28;20112;-79
2022/03/01 11:08:08;;;;;;;20.97;13.17;;;8.70;98.10;;;;;;5032969;28;20479;-79
2022/03/01 11:10:36;;;;;;;22.23;12.97;;;8.90;96.30;;;;;;5001604;28;20045;-80
2022/03/01 11:13:03;;;;;;;22.90;14.07;;;9.10;96.20;;;;;;5017305;28;20108;-79
2022/03/01 11:15:46;;;;;;;21.43;13.27;;;9.30;95.70;;;;;;5033461;28;20045;-79
2022/03/01 11:18:50;;;;;;;20.57;13.33;;;9.40;92.10;;;;;;5033528;28;20053;-79
2022/03/01 11:21:18;;;;;;;21.90;12.97;;;9.50;93.00;;;;;;4935002;28;20391;-80
2022/03/01 11:23:44;;;;;;;21.10;13.40;;;9.70;92.30;;;;;;4968056;28;20158;-80
2022/03/01 11:26:16;;;;;;;21.63;13.57;;;9.70;91.60;;;;;;4973133;28;20099;-80
2022/03/01 11:28:51;;;;;;;22.73;13.45;;;9.70;90.80;;;;;;5024035;28;20045;-80
2022/03/01 11:31:19;;;;;;;19.57;12.03;;;9.70;90.50;;;;;;5033325;28;20061;-79
2022/03/01 11:33:58;;;;;;;23.47;14.00;;;9.80;90.90;;;;;;5017347;28;20382;-79
2022/03/01 11:36:31;;;;;;;22.97;13.73;;;9.80;87.10;;;;;;5014434;28;20045;-79
2022/03/01 11:39:14;;;;;;;19.93;12.90;;;9.70;90.70;;;;;;5009496;28;20476;-79
2022/03/01 11:41:45;;;;;;;20.40;13.10;;;9.70;87.20;;;;;;5008985;28;20637;-81
2022/03/01 11:44:13;;;;;;;20.30;12.82;;;9.70;88.90;;;;;;5034387;28;20051;-80
2022/03/01 11:46:41;;;;;;;20.67;13.27;;;9.70;88.70;;;;;;5017482;28;20128;-80
2022/03/01 11:49:08;;;;;;;20.27;14.00;;;9.60;87.40;;;;;;5016039;28;20585;-79
2022/03/01 11:51:38;;;;;;;21.50;13.73;;;9.60;88.90;;;;;;5051290;28;20086;-79
2022/03/01 11:54:11;;;;;;;25.27;13.77;;;9.50;89.70;;;;;;5032888;28;20052;-79
2022/03/01 11:56:39;;;;;;;22.30;14.60;;;9.50;89.40;;;;;;5032654;28;20041;-80
2022/03/01 11:59:11;;;;;;;22.27;13.33;;;9.50;90.00;;;;;;5050492;28;20040;-79
2022/03/01 12:01:37;;;;;;;21.40;13.20;;;9.50;89.40;;;;;;5032631;28;20505;-79
2022/03/01 12:04:08;;;;;;;24.23;14.13;;;9.50;89.30;;;;;;5033223;28;20095;-80
2022/03/01 12:06:38;;;;;;;20.63;13.30;;;9.60;88.80;;;;;;5016230;28;20049;-79
2022/03/01 12:09:06;;;;;;;21.73;13.33;;;9.70;88.10;;;;;;5017459;28;20032;-80
2022/03/01 12:11:37;;;;;;;19.83;13.80;;;9.80;87.70;;;;;;5016903;28;20038;-80
2022/03/01 12:14:05;;;;;;;25.30;14.37;;;9.90;86.70;;;;;;5032278;28;20037;-80
2022/03/01 12:16:32;;;;;;;26.50;13.73;;;10.00;85.80;;;;;;5016464;28;20172;-79
2022/03/01 12:19:17;;;;;;;23.40;13.77;;;10.10;86.20;;;;;;5035076;28;20061;-80
2022/03/01 12:21:58;;;;;;;21.53;13.53;;;10.10;81.10;;;;;;4998759;28;20041;-80
2022/03/01 12:24:25;;;;;;;22.70;15.17;;;10.20;81.30;;;;;;5032332;28;20048;-80
2022/03/01 12:26:58;;;;;;;21.77;13.97;;;10.10;84.30;;;;;;5013613;28;20122;-79
2022/03/01 12:29:29;;;;;;;21.83;14.13;;;10.20;83.70;;;;;;5026783;28;20036;-79
2022/03/01 12:32:13;;;;;;;21.93;13.83;;;10.20;84.60;;;;;;5008520;28;20568;-80
2022/03/01 12:34:41;;;;;;;21.00;12.87;;;10.10;80.70;;;;;;5030450;28;20491;-80
2022/03/01 12:37:14;;;;;;;21.97;13.47;;;10.10;84.00;;;;;;4995719;28;20037;-78